Time;durP1;ratioP1;P1;durP2;ratioP2;P2;SDS_P1;SDS_P2;PMS_P1;PMS_P2;Temp;Humidity;BMP_temperature;BMP_pressure;BME280_temperature;BME280_humidity;BME280_pressure;Samples;Min_cycle;Max_cycle;Signal;HPM_P1;HPM_P2
2021/10/21 00:00:25;;;;;;;13.67;11.90;;;;;;;;;;4956264;29;20198;-82
2021/10/21 00:02:58;;;;;;;12.23;11.03;;;;;;;;;;4956238;29;20229;-83
2021/10/21 00:05:26;;;;;;;10.30;9.30;;;;;;;;;;4956616;29;20638;-83
2021/10/21 00:07:56;;;;;;;11.03;9.90;;;;;;;;;;4956037;29;20264;-83
2021/10/21 00:10:25;;;;;;;10.17;9.17;;;;;;;;;;4956275;29;20678;-83
2021/10/21 00:12:55;;;;;;;13.40;10.27;;;;;;;;;;4956079;29;20205;-83
2021/10/21 00:15:29;;;;;;;10.30;9.30;;;;;;;;;;4956460;29;20198;-83
2021/10/21 00:17:59;;;;;;;10.97;9.87;;;;;;;;;;4955970;28;20640;-83
2021/10/21 00:20:26;;;;;;;11.53;10.33;;;;;;;;;;4955569;29;20209;-83
2021/10/21 00:22:54;;;;;;;10.70;9.50;;;;;;;;;;4955835;29;20745;-83
2021/10/21 00:25:21;;;;;;;10.07;9.17;;;;;;;;;;4956190;29;20260;-83
2021/10/21 00:27:50;;;;;;;10.63;9.63;;;;;;;;;;4955831;29;20206;-84
2021/10/21 00:30:17;;;;;;;13.93;10.10;;;;;;;;;;5219361;23;20301;-86
2021/10/21 00:37:55;;;;;;;10.90;9.87;;;;;;;;;;5500890;23;20371;-86
2021/10/21 00:42:59;;;;;;;12.40;11.20;;;;;;;;;;5283825;23;20229;-88
2021/10/21 00:48:01;;;;;;;12.33;11.03;;;;;;;;;;5227790;23;20236;-84
2021/10/21 00:50:29;;;;;;;11.87;10.00;;;;;;;;;;4940623;29;20650;-83
2021/10/21 00:52:56;;;;;;;12.57;11.27;;;;;;;;;;5192719;23;20314;-83
2021/10/21 00:55:23;;;;;;;10.97;9.87;;;;;;;;;;5195129;23;20254;-83
2021/10/21 00:57:51;;;;;;;11.13;10.03;;;;;;;;;;4944704;29;20237;-83
2021/10/21 01:02:47;;;;;;;11.37;9.83;;;;;;;;;;4957494;28;20241;-83
2021/10/21 01:05:15;;;;;;;10.47;8.47;;;;;;;;;;4955449;29;20197;-83
2021/10/21 01:07:42;;;;;;;10.60;9.00;;;;;;;;;;4956890;28;20684;-83
2021/10/21 01:10:10;;;;;;;11.37;9.43;;;;;;;;;;4974956;28;20283;-83
2021/10/21 01:12:38;;;;;;;11.50;9.70;;;;;;;;;;4974224;28;20232;-83
2021/10/21 01:15:21;;;;;;;9.60;8.50;;;;;;;;;;4974851;28;20584;-83
2021/10/21 01:17:51;;;;;;;9.93;8.90;;;;;;;;;;4972097;28;20244;-83
2021/10/21 01:20:20;;;;;;;10.97;9.13;;;;;;;;;;4974449;28;20207;-83
2021/10/21 01:22:48;;;;;;;11.20;10.10;;;;;;;;;;4974292;28;20244;-83
2021/10/21 01:25:16;;;;;;;11.03;9.10;;;;;;;;;;4965311;28;20212;-83
2021/10/21 01:27:44;;;;;;;13.47;9.30;;;;;;;;;;4954521;28;20284;-83
2021/10/21 01:30:18;;;;;;;13.43;9.37;;;;;;;;;;4954910;29;20234;-83
2021/10/21 01:32:45;;;;;;;10.37;9.37;;;;;;;;;;4954812;29;20268;-83
2021/10/21 01:35:13;;;;;;;10.80;9.43;;;;;;;;;;4954663;29;20206;-83
2021/10/21 01:37:42;;;;;;;12.13;10.10;;;;;;;;;;4954894;29;20225;-83
2021/10/21 01:40:11;;;;;;;11.60;10.30;;;;;;;;;;4954713;29;20205;-83
2021/10/21 01:42:39;;;;;;;13.33;10.80;;;;;;;;;;4954589;29;20288;-82
2021/10/21 01:45:15;;;;;;;11.70;9.50;;;;;;;;;;4954594;29;20233;-83
2021/10/21 01:47:43;;;;;;;10.63;9.53;;;;;;;;;;4954731;29;20182;-83
2021/10/21 01:50:11;;;;;;;10.47;9.47;;;;;;;;;;4954610;29;20233;-83
2021/10/21 01:52:38;;;;;;;10.83;9.73;;;;;;;;;;4954703;29;20268;-83
2021/10/21 01:55:08;;;;;;;14.50;10.03;;;;;;;;;;4954780;29;20206;-82
2021/10/21 01:57:35;;;;;;;12.73;9.33;;;;;;;;;;4954021;29;20280;-83
2021/10/21 02:00:03;;;;;;;10.27;9.17;;;;;;;;;;4954469;29;20202;-83
2021/10/21 02:02:31;;;;;;;10.43;8.57;;;;;;;;;;4957948;28;20244;-82
2021/10/21 02:04:58;;;;;;;10.50;9.50;;;;;;;;;;4973959;28;20275;-83
2021/10/21 02:07:25;;;;;;;10.47;9.33;;;;;;;;;;4973290;28;20197;-83
2021/10/21 02:09:53;;;;;;;10.73;8.67;;;;;;;;;;4973488;28;20300;-83
2021/10/21 02:12:22;;;;;;;12.17;10.17;;;;;;;;;;4973429;28;20201;-83
2021/10/21 02:14:49;;;;;;;10.73;9.47;;;;;;;;;;4973352;28;20211;-83
2021/10/21 02:17:16;;;;;;;10.97;9.97;;;;;;;;;;4973172;28;20708;-83
2021/10/21 02:19:44;;;;;;;14.07;10.40;;;;;;;;;;4973902;28;20205;-83
2021/10/21 02:22:11;;;;;;;11.47;10.37;;;;;;;;;;4973641;28;20215;-83
2021/10/21 02:24:38;;;;;;;11.27;10.07;;;;;;;;;;4973909;28;20240;-83
2021/10/21 02:27:06;;;;;;;12.43;11.23;;;;;;;;;;4974158;28;20712;-83
2021/10/21 02:29:35;;;;;;;14.77;10.87;;;;;;;;;;4974335;28;20659;-83
2021/10/21 02:32:02;;;;;;;11.30;10.13;;;;;;;;;;4973127;28;20766;-83
2021/10/21 02:34:29;;;;;;;12.97;10.53;;;;;;;;;;4973028;28;20259;-83
2021/10/21 02:36:57;;;;;;;10.93;9.83;;;;;;;;;;4973088;28;20316;-83
2021/10/21 02:39:24;;;;;;;14.63;10.70;;;;;;;;;;4974786;28;20223;-83
2021/10/21 02:41:51;;;;;;;11.63;9.97;;;;;;;;;;4979359;28;20693;-83
2021/10/21 02:44:19;;;;;;;12.97;10.53;;;;;;;;;;4979703;28;20295;-83
2021/10/21 02:46:48;;;;;;;12.80;11.43;;;;;;;;;;4979525;28;20291;-83
2021/10/21 02:49:15;;;;;;;11.93;9.87;;;;;;;;;;4979584;28;20192;-83
2021/10/21 02:51:42;;;;;;;11.63;10.40;;;;;;;;;;4979334;28;20291;-83
2021/10/21 02:54:10;;;;;;;13.70;10.23;;;;;;;;;;4979447;28;20637;-83
2021/10/21 02:56:37;;;;;;;13.60;11.50;;;;;;;;;;4979602;28;20372;-83
2021/10/21 02:59:04;;;;;;;12.37;10.57;;;;;;;;;;4979542;28;20200;-83
2021/10/21 03:01:32;;;;;;;11.17;9.97;;;;;;;;;;4979212;28;20236;-83
2021/10/21 03:04:00;;;;;;;11.27;10.17;;;;;;;;;;4979235;28;20211;-83
2021/10/21 03:06:28;;;;;;;11.43;10.30;;;;;;;;;;4979445;28;20251;-83
2021/10/21 03:08:55;;;;;;;9.90;8.90;;;;;;;;;;4980033;28;20220;-83
2021/10/21 03:11:23;;;;;;;12.47;10.47;;;;;;;;;;4979463;28;20200;-83
2021/10/21 03:13:50;;;;;;;10.27;9.13;;;;;;;;;;4979955;28;20260;-83
2021/10/21 03:16:17;;;;;;;10.63;9.53;;;;;;;;;;4978656;28;20586;-83
2021/10/21 03:18:45;;;;;;;9.90;8.93;;;;;;;;;;4978751;28;20229;-83
2021/10/21 03:21:14;;;;;;;9.73;8.63;;;;;;;;;;4969184;28;20606;-83
2021/10/21 03:23:41;;;;;;;10.97;9.33;;;;;;;;;;4978590;28;20201;-83
2021/10/21 03:26:08;;;;;;;10.27;9.27;;;;;;;;;;4981083;28;20208;-84
2021/10/21 03:28:36;;;;;;;11.87;10.43;;;;;;;;;;4985977;28;20224;-83
2021/10/21 03:31:03;;;;;;;12.00;9.80;;;;;;;;;;4986237;28;20256;-83
2021/10/21 03:33:30;;;;;;;11.03;9.87;;;;;;;;;;4983688;28;20255;-83
2021/10/21 03:35:57;;;;;;;11.90;10.57;;;;;;;;;;4985323;28;20201;-83
2021/10/21 03:38:26;;;;;;;11.40;10.30;;;;;;;;;;4983796;28;20221;-83
2021/10/21 03:40:54;;;;;;;12.87;9.73;;;;;;;;;;4984238;28;20255;-84
2021/10/21 03:43:23;;;;;;;16.17;9.73;;;;;;;;;;4981881;28;20197;-84
2021/10/21 03:45:50;;;;;;;12.77;9.13;;;;;;;;;;4972949;28;20208;-83
2021/10/21 03:48:18;;;;;;;46.57;34.13;;;;;;;;;;4978042;28;20918;-84
2021/10/21 03:50:46;;;;;;;98.63;70.57;;;;;;;;;;4977273;28;20614;-85
2021/10/21 03:53:15;;;;;;;38.60;31.27;;;;;;;;;;4974540;28;20204;-84
2021/10/21 03:55:44;;;;;;;35.87;27.67;;;;;;;;;;4975120;28;20220;-84
2021/10/21 03:58:11;;;;;;;28.73;24.43;;;;;;;;;;4974591;28;20235;-83
2021/10/21 04:00:38;;;;;;;16.13;14.43;;;;;;;;;;4975033;28;20292;-84
2021/10/21 04:03:05;;;;;;;11.30;10.13;;;;;;;;;;4974796;28;20208;-83
2021/10/21 04:05:33;;;;;;;11.00;9.13;;;;;;;;;;4975235;28;20593;-85
2021/10/21 04:08:00;;;;;;;11.80;9.17;;;;;;;;;;4974977;28;20386;-84
2021/10/21 04:10:27;;;;;;;14.73;12.60;;;;;;;;;;4975440;28;20756;-84
2021/10/21 04:12:56;;;;;;;23.77;18.83;;;;;;;;;;4975206;28;20211;-85
2021/10/21 04:15:25;;;;;;;14.00;12.27;;;;;;;;;;4975011;28;20755;-85
2021/10/21 04:17:52;;;;;;;13.63;11.13;;;;;;;;;;4974477;28;20233;-83
2021/10/21 04:20:20;;;;;;;11.93;10.40;;;;;;;;;;4973824;28;20263;-84
2021/10/21 04:22:47;;;;;;;11.30;10.00;;;;;;;;;;4974091;28;20228;-83
2021/10/21 04:25:15;;;;;;;19.20;14.07;;;;;;;;;;4974347;28;20209;-83
2021/10/21 04:30:19;;;;;;;15.93;14.20;;;;;;;;;;5148328;23;20229;-84
2021/10/21 04:32:46;;;;;;;21.47;18.23;;;;;;;;;;4955824;29;20210;-85
2021/10/21 04:35:13;;;;;;;23.90;21.20;;;;;;;;;;4955568;29;20692;-84
2021/10/21 04:37:41;;;;;;;60.93;47.37;;;;;;;;;;4955728;29;20229;-84
2021/10/21 04:40:09;;;;;;;69.73;53.90;;;;;;;;;;4955714;29;20202;-83
2021/10/21 04:42:37;;;;;;;19.07;16.97;;;;;;;;;;4956082;29;20262;-84
2021/10/21 04:45:05;;;;;;;21.30;11.27;;;;;;;;;;4955383;29;20201;-85
2021/10/21 04:47:34;;;;;;;18.47;11.10;;;;;;;;;;4954608;29;20678;-85
2021/10/21 04:50:02;;;;;;;14.67;11.57;;;;;;;;;;4955243;29;20202;-84
2021/10/21 04:52:29;;;;;;;16.07;11.73;;;;;;;;;;4955695;29;20735;-84
2021/10/21 04:54:56;;;;;;;13.53;11.53;;;;;;;;;;4947293;29;20293;-85
2021/10/21 04:57:24;;;;;;;12.53;11.17;;;;;;;;;;4946819;29;20233;-85
2021/10/21 04:59:51;;;;;;;14.13;10.60;;;;;;;;;;4949466;29;20203;-85
2021/10/21 05:02:18;;;;;;;15.00;12.40;;;;;;;;;;4954254;28;20213;-85
2021/10/21 05:04:47;;;;;;;14.37;12.43;;;;;;;;;;4935172;29;20209;-85
2021/10/21 05:07:14;;;;;;;13.50;11.10;;;;;;;;;;4936374;29;20210;-85
2021/10/21 05:09:41;;;;;;;12.10;10.90;;;;;;;;;;4944197;29;20210;-85
2021/10/21 05:12:09;;;;;;;12.30;11.00;;;;;;;;;;4935786;29;20203;-84
2021/10/21 05:14:36;;;;;;;13.90;11.87;;;;;;;;;;4935879;29;20698;-85
2021/10/21 05:17:03;;;;;;;12.87;11.50;;;;;;;;;;4936155;29;20560;-84
2021/10/21 05:19:31;;;;;;;12.73;10.73;;;;;;;;;;4935948;29;20621;-85
2021/10/21 05:21:59;;;;;;;12.10;10.80;;;;;;;;;;4935634;29;20696;-85
2021/10/21 05:24:27;;;;;;;12.23;10.97;;;;;;;;;;4935908;29;20221;-85
2021/10/21 05:26:54;;;;;;;15.23;10.90;;;;;;;;;;4935770;29;20209;-85
2021/10/21 05:29:22;;;;;;;16.93;13.97;;;;;;;;;;4935334;29;20234;-84
2021/10/21 05:31:50;;;;;;;21.70;19.37;;;;;;;;;;4935449;29;20209;-84
2021/10/21 05:34:17;;;;;;;24.70;22.10;;;;;;;;;;4935560;29;20198;-85
2021/10/21 05:36:44;;;;;;;26.93;22.50;;;;;;;;;;4935522;29;20254;-84
2021/10/21 05:39:13;;;;;;;24.73;21.87;;;;;;;;;;4935243;29;20230;-85
2021/10/21 05:41:40;;;;;;;23.43;19.03;;;;;;;;;;4935423;29;20253;-85
2021/10/21 05:44:08;;;;;;;23.07;20.60;;;;;;;;;;4939570;29;20209;-85
2021/10/21 05:46:35;;;;;;;24.30;21.57;;;;;;;;;;4954563;29;20212;-85
2021/10/21 05:49:02;;;;;;;25.37;20.43;;;;;;;;;;4954016;29;20206;-85
2021/10/21 05:51:30;;;;;;;22.50;18.17;;;;;;;;;;4954734;29;20293;-85
2021/10/21 05:53:57;;;;;;;17.70;15.40;;;;;;;;;;4954324;29;20198;-85
2021/10/21 05:56:25;;;;;;;13.90;10.93;;;;;;;;;;4954380;29;20213;-85
2021/10/21 05:58:53;;;;;;;13.63;11.33;;;;;;;;;;4954077;29;20233;-85
2021/10/21 06:01:21;;;;;;;14.23;10.90;;;;;;;;;;4954067;29;20202;-85
2021/10/21 06:03:48;;;;;;;17.07;15.27;;;;;;;;;;4954069;29;20209;-85
2021/10/21 06:06:15;;;;;;;19.77;17.40;;;;;;;;;;4954556;29;20645;-84
2021/10/21 06:08:44;;;;;;;19.47;16.90;;;;;;;;;;4954135;29;20193;-85
2021/10/21 06:11:12;;;;;;;18.30;16.17;;;;;;;;;;4954131;29;20667;-84
2021/10/21 06:13:41;;;;;;;14.93;13.53;;;;;;;;;;4953806;28;20209;-84
2021/10/21 06:16:08;;;;;;;20.40;18.37;;;;;;;;;;4953774;29;20202;-85
2021/10/21 06:18:36;;;;;;;20.33;15.40;;;;;;;;;;4954238;29;20221;-84
2021/10/21 06:21:06;;;;;;;20.50;18.40;;;;;;;;;;4953918;29;20197;-85
2021/10/21 06:23:33;;;;;;;27.17;24.10;;;;;;;;;;4953790;29;20213;-83
2021/10/21 06:26:01;;;;;;;24.17;20.13;;;;;;;;;;4953885;29;20276;-85
2021/10/21 06:28:28;;;;;;;19.37;17.30;;;;;;;;;;4952021;28;20208;-85
2021/10/21 06:30:57;;;;;;;20.33;15.77;;;;;;;;;;4953237;29;20190;-84
2021/10/21 06:33:24;;;;;;;18.30;14.17;;;;;;;;;;4954245;29;20272;-84
2021/10/21 06:35:51;;;;;;;17.33;14.43;;;;;;;;;;4953378;29;20205;-85
2021/10/21 06:38:19;;;;;;;17.43;15.43;;;;;;;;;;4953788;29;20230;-84
2021/10/21 06:40:46;;;;;;;17.17;15.50;;;;;;;;;;4953634;29;20201;-84
2021/10/21 06:43:13;;;;;;;20.53;17.93;;;;;;;;;;4953542;29;20206;-85
2021/10/21 06:45:40;;;;;;;18.93;17.13;;;;;;;;;;4953594;29;20202;-85
2021/10/21 06:48:10;;;;;;;17.63;15.90;;;;;;;;;;4948594;29;20217;-85
2021/10/21 06:50:37;;;;;;;20.60;16.00;;;;;;;;;;4953393;29;20205;-85
2021/10/21 06:53:04;;;;;;;18.20;14.83;;;;;;;;;;4953704;29;20197;-85
2021/10/21 06:55:31;;;;;;;16.30;14.57;;;;;;;;;;4953509;29;20694;-85
2021/10/21 06:57:58;;;;;;;17.63;15.87;;;;;;;;;;4953929;29;20225;-85
2021/10/21 07:00:26;;;;;;;21.70;16.30;;;;;;;;;;4953392;29;20260;-85
2021/10/21 07:02:54;;;;;;;18.93;15.20;;;;;;;;;;4953716;29;20223;-85
2021/10/21 07:05:26;;;;;;;17.17;14.17;;;;;;;;;;4953378;29;20209;-85
2021/10/21 07:07:53;;;;;;;17.00;14.77;;;;;;;;;;4953881;29;20217;-85
2021/10/21 07:10:22;;;;;;;17.00;15.33;;;;;;;;;;4953709;29;20202;-84
2021/10/21 07:12:49;;;;;;;16.70;14.33;;;;;;;;;;4953608;29;20252;-85
2021/10/21 07:15:16;;;;;;;17.90;14.27;;;;;;;;;;4953380;29;20190;-85
2021/10/21 07:17:44;;;;;;;19.13;15.40;;;;;;;;;;4953497;29;20233;-85
2021/10/21 07:20:13;;;;;;;22.80;14.60;;;;;;;;;;4953533;29;20257;-84
2021/10/21 07:22:42;;;;;;;16.30;14.03;;;;;;;;;;4953199;29;20745;-84
2021/10/21 07:25:10;;;;;;;14.63;13.13;;;;;;;;;;4953422;29;20194;-85
2021/10/21 07:27:37;;;;;;;16.87;14.43;;;;;;;;;;4955854;28;20280;-85
2021/10/21 07:30:06;;;;;;;16.70;14.20;;;;;;;;;;4956509;29;20718;-85
2021/10/21 07:32:33;;;;;;;16.90;15.17;;;;;;;;;;4957001;29;20209;-85
2021/10/21 07:35:00;;;;;;;16.33;14.73;;;;;;;;;;4956769;29;20206;-85
2021/10/21 07:37:27;;;;;;;18.00;14.97;;;;;;;;;;4957005;29;20206;-85
2021/10/21 07:39:56;;;;;;;18.63;15.70;;;;;;;;;;4956323;29;20320;-85
2021/10/21 07:42:23;;;;;;;16.60;15.00;;;;;;;;;;4956938;29;20202;-85
2021/10/21 07:44:51;;;;;;;15.60;14.00;;;;;;;;;;4956559;29;20217;-86
2021/10/21 07:47:18;;;;;;;13.27;11.93;;;;;;;;;;4957084;29;20202;-85
2021/10/21 07:49:46;;;;;;;13.53;12.20;;;;;;;;;;4956466;29;20206;-85
2021/10/21 07:52:16;;;;;;;16.70;13.70;;;;;;;;;;4956649;29;20208;-85
2021/10/21 07:54:43;;;;;;;14.40;12.90;;;;;;;;;;4956481;29;20186;-85
2021/10/21 07:57:13;;;;;;;15.90;13.23;;;;;;;;;;4956720;29;20683;-86
2021/10/21 07:59:40;;;;;;;14.10;12.63;;;;;;;;;;4956374;29;20620;-85
2021/10/21 08:02:08;;;;;;;15.00;12.53;;;;;;;;;;4956590;29;20202;-85
2021/10/21 08:04:35;;;;;;;18.03;12.30;;;;;;;;;;4956279;29;20198;-86
2021/10/21 08:07:03;;;;;;;13.10;11.37;;;;;;;;;;4956275;29;20204;-86
2021/10/21 08:09:31;;;;;;;13.77;12.37;;;;;;;;;;4956155;29;20215;-85
2021/10/21 08:11:59;;;;;;;13.13;11.73;;;;;;;;;;4956367;29;20237;-86
2021/10/21 08:14:28;;;;;;;13.37;11.97;;;;;;;;;;4956537;29;20700;-86
2021/10/21 08:16:57;;;;;;;15.77;13.03;;;;;;;;;;4956053;29;20202;-87
2021/10/21 08:19:24;;;;;;;15.60;11.63;;;;;;;;;;4956119;29;20605;-86
2021/10/21 08:21:52;;;;;;;13.53;12.10;;;;;;;;;;4956166;29;20208;-87
2021/10/21 08:24:21;;;;;;;15.17;13.30;;;;;;;;;;4955764;29;20198;-85
2021/10/21 08:26:49;;;;;;;12.90;11.20;;;;;;;;;;4956235;29;20206;-86
2021/10/21 08:29:16;;;;;;;13.83;10.50;;;;;;;;;;4955856;29;20230;-86
2021/10/21 08:31:45;;;;;;;12.50;11.20;;;;;;;;;;4956184;29;20206;-86
2021/10/21 08:34:12;;;;;;;15.07;11.87;;;;;;;;;;4955564;29;20213;-86
2021/10/21 08:36:39;;;;;;;16.87;13.63;;;;;;;;;;4956067;29;20213;-86
2021/10/21 08:39:07;;;;;;;13.47;12.17;;;;;;;;;;4955631;28;20580;-85
2021/10/21 08:41:35;;;;;;;13.43;11.83;;;;;;;;;;4955926;29;20624;-87
2021/10/21 08:44:03;;;;;;;14.47;12.60;;;;;;;;;;4955686;29;20233;-86
2021/10/21 08:46:30;;;;;;;25.80;18.37;;;;;;;;;;4955871;29;20201;-87
2021/10/21 08:49:00;;;;;;;24.30;19.30;;;;;;;;;;4955814;29;20198;-86
2021/10/21 08:51:27;;;;;;;15.07;12.50;;;;;;;;;;4955803;29;20204;-87
2021/10/21 08:53:55;;;;;;;15.10;13.63;;;;;;;;;;4955385;29;20198;-86
2021/10/21 08:56:23;;;;;;;17.00;12.27;;;;;;;;;;4955591;29;20207;-86
2021/10/21 08:58:51;;;;;;;14.93;13.47;;;;;;;;;;4955465;29;21038;-86
2021/10/21 09:01:20;;;;;;;13.27;12.07;;;;;;;;;;4955724;29;20205;-87
2021/10/21 09:03:56;;;;;;;14.77;13.33;;;;;;;;;;4955288;29;20197;-86
2021/10/21 09:06:33;;;;;;;16.57;14.20;;;;;;;;;;4955437;29;20291;-86
2021/10/21 09:09:00;;;;;;;15.37;13.07;;;;;;;;;;4955117;29;20242;-87
2021/10/21 09:11:27;;;;;;;20.83;13.80;;;;;;;;;;4955296;29;20237;-86
2021/10/21 09:14:13;;;;;;;15.40;13.60;;;;;;;;;;4955485;29;20299;-86
2021/10/21 09:16:41;;;;;;;15.40;13.80;;;;;;;;;;4955090;29;20725;-87
2021/10/21 09:19:09;;;;;;;16.10;13.47;;;;;;;;;;4954922;29;20245;-86
2021/10/21 09:21:40;;;;;;;15.63;14.03;;;;;;;;;;4955437;29;20215;-86
2021/10/21 09:24:28;;;;;;;15.47;13.87;;;;;;;;;;4955019;29;20189;-85
2021/10/21 09:27:06;;;;;;;16.60;14.77;;;;;;;;;;4955579;29;20300;-86
2021/10/21 09:29:34;;;;;;;15.53;13.93;;;;;;;;;;4954489;29;20264;-87
2021/10/21 09:32:12;;;;;;;15.27;13.67;;;;;;;;;;4954879;29;20216;-87
2021/10/21 09:34:53;;;;;;;16.10;14.40;;;;;;;;;;4954681;29;20205;-86
2021/10/21 09:37:24;;;;;;;14.23;12.93;;;;;;;;;;4954694;29;20237;-87
2021/10/21 09:39:53;;;;;;;16.73;14.93;;;;;;;;;;4954594;29;20218;-86
2021/10/21 09:42:24;;;;;;;16.23;14.57;;;;;;;;;;4954688;29;20264;-86
2021/10/21 09:45:11;;;;;;;16.37;14.77;;;;;;;;;;4954542;29;20192;-86
2021/10/21 09:47:38;;;;;;;16.90;15.20;;;;;;;;;;4954825;29;20248;-86
2021/10/21 09:50:17;;;;;;;15.50;13.90;;;;;;;;;;4954126;28;20259;-86
2021/10/21 09:53:02;;;;;;;15.87;14.40;;;;;;;;;;4954652;29;20190;-86
2021/10/21 09:55:30;;;;;;;16.07;14.37;;;;;;;;;;4954687;29;20190;-86
2021/10/21 09:58:00;;;;;;;16.00;14.40;;;;;;;;;;4954559;29;20589;-87
2021/10/21 10:00:31;;;;;;;16.87;14.93;;;;;;;;;;4954051;29;20616;-86
2021/10/21 10:03:08;;;;;;;19.57;13.83;;;;;;;;;;4954730;29;20182;-87
2021/10/21 10:05:36;;;;;;;15.77;14.27;;;;;;;;;;4954312;29;20181;-86
2021/10/21 10:08:08;;;;;;;14.73;12.83;;;;;;;;;;4954366;29;20210;-86
2021/10/21 10:10:37;;;;;;;15.03;13.60;;;;;;;;;;4954246;29;20225;-86
2021/10/21 10:13:04;;;;;;;17.90;14.57;;;;;;;;;;4954423;29;20213;-86
2021/10/21 10:15:31;;;;;;;15.63;13.77;;;;;;;;;;4954134;29;20244;-87
2021/10/21 10:17:59;;;;;;;13.57;12.27;;;;;;;;;;4954062;29;20206;-86
2021/10/21 10:20:27;;;;;;;16.17;14.47;;;;;;;;;;4954035;29;20232;-86
2021/10/21 10:22:54;;;;;;;14.03;12.70;;;;;;;;;;4954176;29;20273;-87
2021/10/21 10:25:24;;;;;;;13.83;12.33;;;;;;;;;;4954429;29;20262;-87
2021/10/21 10:27:56;;;;;;;15.60;13.03;;;;;;;;;;4954055;29;20208;-87
2021/10/21 10:30:48;;;;;;;13.93;12.53;;;;;;;;;;4953827;29;20238;-87
2021/10/21 10:33:40;;;;;;;13.80;12.40;;;;;;;;;;4935665;29;20252;-87
2021/10/21 10:36:28;;;;;;;13.10;11.67;;;;;;;;;;4954133;29;20194;-87
2021/10/21 10:38:56;;;;;;;14.03;12.40;;;;;;;;;;4954138;29;20658;-87
2021/10/21 10:41:52;;;;;;;14.23;12.77;;;;;;;;;;4954293;29;20224;-87
2021/10/21 10:44:56;;;;;;;13.43;11.33;;;;;;;;;;4954010;29;20186;-86
2021/10/21 10:47:42;;;;;;;13.87;12.37;;;;;;;;;;4953637;29;20205;-88
2021/10/21 10:50:10;;;;;;;13.77;11.97;;;;;;;;;;4954154;29;20574;-86
2021/10/21 10:52:46;;;;;;;12.83;11.53;;;;;;;;;;4954226;29;20237;-87
2021/10/21 10:55:18;;;;;;;13.40;12.00;;;;;;;;;;4954208;29;20190;-87
2021/10/21 10:57:55;;;;;;;11.80;10.80;;;;;;;;;;4954163;29;20229;-88
2021/10/21 11:00:51;;;;;;;12.43;11.20;;;;;;;;;;4954425;28;20681;-87
2021/10/21 11:03:35;;;;;;;11.97;10.97;;;;;;;;;;4957874;29;20190;-87
2021/10/21 11:06:03;;;;;;;12.97;11.60;;;;;;;;;;4958088;29;20197;-87
2021/10/21 11:08:54;;;;;;;12.10;11.00;;;;;;;;;;4957729;29;20200;-87
2021/10/21 11:12:01;;;;;;;15.93;11.90;;;;;;;;;;4957713;29;20190;-88
2021/10/21 11:14:39;;;;;;;12.43;11.23;;;;;;;;;;4957776;29;20284;-87
2021/10/21 11:17:06;;;;;;;13.07;11.77;;;;;;;;;;4957824;29;20243;-87
2021/10/21 11:19:48;;;;;;;13.03;11.83;;;;;;;;;;4957265;29;20706;-87
2021/10/21 11:22:38;;;;;;;11.63;10.43;;;;;;;;;;4957531;29;20197;-87
2021/10/21 11:25:08;;;;;;;11.87;10.63;;;;;;;;;;4957631;29;20641;-87
2021/10/21 11:27:37;;;;;;;11.30;10.20;;;;;;;;;;4957723;29;20210;-87
2021/10/21 11:30:10;;;;;;;12.23;10.03;;;;;;;;;;4957215;29;20268;-87
2021/10/21 11:32:38;;;;;;;17.57;12.57;;;;;;;;;;4957801;29;20249;-87
2021/10/21 11:35:08;;;;;;;13.67;12.40;;;;;;;;;;4957308;29;20635;-88
2021/10/21 11:37:43;;;;;;;13.27;10.63;;;;;;;;;;4957468;29;20590;-87
2021/10/21 11:40:14;;;;;;;11.90;10.70;;;;;;;;;;4957068;29;20221;-87
2021/10/21 11:42:41;;;;;;;13.70;12.30;;;;;;;;;;4957254;29;20190;-88
2021/10/21 11:45:11;;;;;;;12.87;11.47;;;;;;;;;;4956778;29;20209;-88
2021/10/21 11:47:38;;;;;;;13.90;12.47;;;;;;;;;;4957125;29;20198;-88
2021/10/21 11:50:07;;;;;;;16.57;12.77;;;;;;;;;;4957163;29;20233;-87
2021/10/21 11:52:42;;;;;;;17.30;12.97;;;;;;;;;;4957054;29;20292;-87
2021/10/21 11:55:20;;;;;;;13.50;12.20;;;;;;;;;;4957159;29;20670;-87
2021/10/21 11:57:48;;;;;;;14.60;13.23;;;;;;;;;;4957208;29;20222;-87
2021/10/21 12:00:22;;;;;;;16.30;12.83;;;;;;;;;;4957214;29;20221;-88
2021/10/21 12:02:53;;;;;;;15.87;14.20;;;;;;;;;;4956939;29;20229;-87
2021/10/21 12:05:32;;;;;;;16.57;14.87;;;;;;;;;;4956695;29;20253;-87
2021/10/21 12:08:01;;;;;;;15.43;13.67;;;;;;;;;;4957097;29;20334;-88
2021/10/21 12:10:33;;;;;;;17.57;15.40;;;;;;;;;;4956694;29;20765;-87
2021/10/21 12:13:02;;;;;;;19.57;16.33;;;;;;;;;;4956528;28;20636;-88
2021/10/21 12:15:33;;;;;;;15.97;14.57;;;;;;;;;;4956632;29;20198;-88
2021/10/21 12:18:04;;;;;;;16.30;14.77;;;;;;;;;;4956861;29;20209;-87
2021/10/21 12:20:38;;;;;;;17.17;14.17;;;;;;;;;;4956724;29;20210;-88
2021/10/21 12:23:13;;;;;;;16.57;14.80;;;;;;;;;;4956663;29;20197;-89
2021/10/21 12:25:40;;;;;;;17.80;16.13;;;;;;;;;;4956747;29;20212;-88
2021/10/21 12:28:08;;;;;;;17.07;15.30;;;;;;;;;;4956739;29;20244;-88
2021/10/21 12:30:38;;;;;;;15.27;13.77;;;;;;;;;;4956327;29;20225;-88
2021/10/21 12:33:10;;;;;;;16.10;14.50;;;;;;;;;;4956653;29;20202;-89
2021/10/21 12:35:38;;;;;;;17.97;16.17;;;;;;;;;;4956697;29;20233;-88
2021/10/21 12:38:06;;;;;;;18.80;15.00;;;;;;;;;;4954618;29;20202;-87
2021/10/21 12:40:37;;;;;;;15.93;14.23;;;;;;;;;;4956239;29;20742;-87
2021/10/21 12:43:15;;;;;;;18.93;16.43;;;;;;;;;;4956328;29;20206;-89
2021/10/21 12:45:44;;;;;;;19.13;17.20;;;;;;;;;;4956146;29;20206;-88
2021/10/21 12:48:25;;;;;;;18.27;15.30;;;;;;;;;;4956276;29;20198;-88
2021/10/21 12:50:53;;;;;;;15.37;13.87;;;;;;;;;;4956417;29;20632;-88
2021/10/21 12:53:21;;;;;;;18.90;15.47;;;;;;;;;;4956142;29;20198;-87
2021/10/21 12:55:49;;;;;;;17.23;15.43;;;;;;;;;;4956188;29;20194;-88
2021/10/21 12:58:23;;;;;;;16.07;13.17;;;;;;;;;;4956208;29;20206;-87
2021/10/21 13:00:58;;;;;;;16.37;14.63;;;;;;;;;;4955967;29;20598;-87
2021/10/21 13:03:26;;;;;;;16.90;15.20;;;;;;;;;;4956098;29;20233;-87
2021/10/21 13:05:54;;;;;;;14.80;13.27;;;;;;;;;;4955786;29;20205;-87
2021/10/21 13:08:22;;;;;;;15.33;13.60;;;;;;;;;;4955611;29;20198;-87
2021/10/21 13:10:54;;;;;;;17.67;15.73;;;;;;;;;;4955683;29;20289;-87
2021/10/21 13:13:23;;;;;;;18.03;16.13;;;;;;;;;;4955740;29;20222;-88
2021/10/21 13:15:52;;;;;;;16.87;15.37;;;;;;;;;;4955529;29;20750;-87
2021/10/21 13:18:20;;;;;;;16.60;15.00;;;;;;;;;;4955689;29;20252;-88
2021/10/21 13:20:48;;;;;;;17.93;16.13;;;;;;;;;;4955880;29;20225;-89
2021/10/21 13:23:16;;;;;;;14.97;13.50;;;;;;;;;;4955896;28;20213;-88
2021/10/21 13:25:44;;;;;;;13.93;12.23;;;;;;;;;;4954514;29;20758;-88
2021/10/21 13:28:11;;;;;;;13.23;12.03;;;;;;;;;;4955716;29;20198;-88
2021/10/21 13:30:38;;;;;;;15.13;12.53;;;;;;;;;;4955118;29;20236;-88
2021/10/21 13:33:07;;;;;;;13.97;12.53;;;;;;;;;;4955449;29;20205;-87
2021/10/21 13:35:35;;;;;;;15.27;13.67;;;;;;;;;;4955587;29;20669;-89
2021/10/21 13:38:03;;;;;;;12.43;11.13;;;;;;;;;;4955615;29;20293;-89
2021/10/21 13:40:31;;;;;;;13.60;12.30;;;;;;;;;;4955425;29;20598;-87
2021/10/21 13:43:00;;;;;;;13.80;12.50;;;;;;;;;;4955575;29;20311;-88
2021/10/21 13:45:27;;;;;;;13.60;11.70;;;;;;;;;;4955232;29;20658;-88
2021/10/21 13:47:55;;;;;;;13.30;11.90;;;;;;;;;;4955513;29;20288;-88
2021/10/21 13:50:23;;;;;;;16.90;12.90;;;;;;;;;;4955128;29;20193;-87
2021/10/21 13:52:51;;;;;;;14.17;12.80;;;;;;;;;;4955564;29;20644;-88
2021/10/21 13:55:18;;;;;;;14.07;12.13;;;;;;;;;;4955016;29;20202;-87
2021/10/21 13:57:45;;;;;;;12.00;10.90;;;;;;;;;;4954733;29;20217;-88
2021/10/21 14:00:14;;;;;;;13.60;12.30;;;;;;;;;;4954996;29;20321;-87
2021/10/21 14:02:42;;;;;;;14.13;11.97;;;;;;;;;;4955131;29;20202;-87
2021/10/21 14:05:10;;;;;;;13.83;12.43;;;;;;;;;;4954661;29;20212;-88
2021/10/21 14:07:39;;;;;;;15.20;13.80;;;;;;;;;;4954782;29;20261;-88
2021/10/21 14:10:07;;;;;;;13.17;11.87;;;;;;;;;;4954596;29;20675;-88
2021/10/21 14:12:34;;;;;;;14.17;12.67;;;;;;;;;;4954489;29;20304;-88
2021/10/21 14:15:01;;;;;;;13.20;11.90;;;;;;;;;;4954744;29;20228;-88
2021/10/21 14:17:30;;;;;;;15.40;14.00;;;;;;;;;;4954406;29;20205;-89
2021/10/21 14:19:57;;;;;;;12.80;11.60;;;;;;;;;;4954748;29;20209;-88
2021/10/21 14:22:24;;;;;;;13.43;12.20;;;;;;;;;;4954578;29;20205;-89
2021/10/21 14:24:53;;;;;;;15.97;13.50;;;;;;;;;;4953899;29;20205;-88
2021/10/21 14:27:20;;;;;;;13.20;11.90;;;;;;;;;;4945922;29;20697;-88
2021/10/21 14:29:48;;;;;;;14.67;12.23;;;;;;;;;;4948751;29;20226;-88
2021/10/21 14:32:16;;;;;;;17.33;13.03;;;;;;;;;;4954651;29;20211;-88
2021/10/21 14:34:45;;;;;;;16.73;14.87;;;;;;;;;;4954101;29;20674;-88
2021/10/21 14:37:12;;;;;;;18.63;16.83;;;;;;;;;;4954108;29;20256;-88
2021/10/21 14:39:39;;;;;;;18.37;15.50;;;;;;;;;;4954397;29;20202;-88
2021/10/21 14:42:08;;;;;;;15.67;14.10;;;;;;;;;;4954397;29;20232;-88
2021/10/21 14:44:36;;;;;;;21.07;16.83;;;;;;;;;;4954171;29;20201;-87
2021/10/21 14:47:03;;;;;;;22.93;20.07;;;;;;;;;;4951971;29;20212;-87